sensor_id;sensor_type;location;lat;lon;timestamp;pressure;altitude;pressure_sealevel;temperature
12126;BMP180;6126;57.908;16.490;2022-12-04T00:01:14;103049.41;;;-0.57
12126;BMP180;6126;57.908;16.490;2022-12-04T00:03:41;103047.81;;;-0.54
12126;BMP180;6126;57.908;16.490;2022-12-04T00:08:36;103051.34;;;-0.50
12126;BMP180;6126;57.908;16.490;2022-12-04T00:11:05;103045.47;;;-0.48
12126;BMP180;6126;57.908;16.490;2022-12-04T00:13:32;103051.47;;;-0.47
12126;BMP180;6126;57.908;16.490;2022-12-04T00:15:58;103043.00;;;-0.45
12126;BMP180;6126;57.908;16.490;2022-12-04T00:18:26;103044.75;;;-0.44
12126;BMP180;6126;57.908;16.490;2022-12-04T00:20:52;103049.84;;;-0.45
12126;BMP180;6126;57.908;16.490;2022-12-04T00:23:18;103050.81;;;-0.42
12126;BMP180;6126;57.908;16.490;2022-12-04T00:25:43;103046.56;;;-0.41
12126;BMP180;6126;57.908;16.490;2022-12-04T00:28:17;103040.69;;;-0.39
12126;BMP180;6126;57.908;16.490;2022-12-04T00:30:45;103046.69;;;-0.38
12126;BMP180;6126;57.908;16.490;2022-12-04T00:33:12;103043.28;;;-0.37
12126;BMP180;6126;57.908;16.490;2022-12-04T00:35:38;103056.19;;;-0.36
12126;BMP180;6126;57.908;16.490;2022-12-04T00:38:04;103053.66;;;-0.34
12126;BMP180;6126;57.908;16.490;2022-12-04T00:40:30;103053.78;;;-0.32
12126;BMP180;6126;57.908;16.490;2022-12-04T00:42:56;103063.25;;;-0.31
12126;BMP180;6126;57.908;16.490;2022-12-04T00:45:22;103048.72;;;-0.30
12126;BMP180;6126;57.908;16.490;2022-12-04T00:47:48;103064.22;;;-0.27
12126;BMP180;6126;57.908;16.490;2022-12-04T00:50:13;103054.88;;;-0.25
12126;BMP180;6126;57.908;16.490;2022-12-04T00:52:39;103058.41;;;-0.23
12126;BMP180;6126;57.908;16.490;2022-12-04T00:55:06;103051.59;;;-0.21
12126;BMP180;6126;57.908;16.490;2022-12-04T00:57:32;103053.38;;;-0.20
12126;BMP180;6126;57.908;16.490;2022-12-04T00:59:58;103044.88;;;-0.18
12126;BMP180;6126;57.908;16.490;2022-12-04T01:02:23;103041.47;;;-0.17
12126;BMP180;6126;57.908;16.490;2022-12-04T01:04:49;103041.47;;;-0.17
12126;BMP180;6126;57.908;16.490;2022-12-04T01:07:15;103039.78;;;-0.16
12126;BMP180;6126;57.908;16.490;2022-12-04T01:09:41;103050.94;;;-0.16
12126;BMP180;6126;57.908;16.490;2022-12-04T01:12:07;103040.72;;;-0.14
12126;BMP180;6126;57.908;16.490;2022-12-04T01:14:33;103033.97;;;-0.11
12126;BMP180;6126;57.908;16.490;2022-12-04T01:16:58;103046.91;;;-0.09
12126;BMP180;6126;57.908;16.490;2022-12-04T01:19:24;103033.19;;;-0.10
12126;BMP180;6126;57.908;16.490;2022-12-04T01:21:51;103047.78;;;-0.09
12126;BMP180;6126;57.908;16.490;2022-12-04T01:24:16;103038.38;;;-0.08
12126;BMP180;6126;57.908;16.490;2022-12-04T01:26:42;103038.47;;;-0.05
12126;BMP180;6126;57.908;16.490;2022-12-04T01:29:08;103037.66;;;-0.04
12126;BMP180;6126;57.908;16.490;2022-12-04T01:31:34;103036.03;;;-0.02
12126;BMP180;6126;57.908;16.490;2022-12-04T01:34:00;103041.19;;;-0.01
12126;BMP180;6126;57.908;16.490;2022-12-04T01:36:27;103031.78;;;-0.01
12126;BMP180;6126;57.908;16.490;2022-12-04T01:38:54;103036.94;;;-0.01
12126;BMP180;6126;57.908;16.490;2022-12-04T01:41:25;103040.34;;;-0.01
12126;BMP180;6126;57.908;16.490;2022-12-04T01:44:20;103048.13;;;0.00
12126;BMP180;6126;57.908;16.490;2022-12-04T01:46:53;103046.41;;;0.00
12126;BMP180;6126;57.908;16.490;2022-12-04T01:49:44;103042.19;;;0.02
12126;BMP180;6126;57.908;16.490;2022-12-04T01:52:21;103043.94;;;0.03
12126;BMP180;6126;57.908;16.490;2022-12-04T01:54:54;103042.31;;;0.05
12126;BMP180;6126;57.908;16.490;2022-12-04T01:57:25;103046.69;;;0.08
12126;BMP180;6126;57.908;16.490;2022-12-04T02:00:01;103035.50;;;0.07
12126;BMP180;6126;57.908;16.490;2022-12-04T02:02:42;103042.41;;;0.08
12126;BMP180;6126;57.908;16.490;2022-12-04T02:05:16;103039.88;;;0.10
12126;BMP180;6126;57.908;16.490;2022-12-04T02:07:48;103024.53;;;0.11
12126;BMP180;6126;57.908;16.490;2022-12-04T02:10:17;103027.97;;;0.12
12126;BMP180;6126;57.908;16.490;2022-12-04T02:13:20;103028.03;;;0.13
12126;BMP180;6126;57.908;16.490;2022-12-04T02:16:35;103039.19;;;0.14
12126;BMP180;6126;57.908;16.490;2022-12-04T02:25:46;103022.16;;;0.17
12126;BMP180;6126;57.908;16.490;2022-12-04T02:31:17;103034.25;;;0.20
12126;BMP180;6126;57.908;16.490;2022-12-04T02:34:13;103017.94;;;0.19
12126;BMP180;6126;57.908;16.490;2022-12-04T02:37:14;103024.81;;;0.20
12126;BMP180;6126;57.908;16.490;2022-12-04T02:39:51;103028.38;;;0.24
12126;BMP180;6126;57.908;16.490;2022-12-04T02:42:57;103016.53;;;0.29
12126;BMP180;6126;57.908;16.490;2022-12-04T02:45:32;103023.63;;;0.35
12126;BMP180;6126;57.908;16.490;2022-12-04T02:48:05;103026.38;;;0.40
12126;BMP180;6126;57.908;16.490;2022-12-04T02:50:36;103028.22;;;0.44
12126;BMP180;6126;57.908;16.490;2022-12-04T02:53:22;103032.66;;;0.48
12126;BMP180;6126;57.908;16.490;2022-12-04T02:55:57;103036.44;;;0.59
12126;BMP180;6126;57.908;16.490;2022-12-04T02:58:31;103022.13;;;0.66
12126;BMP180;6126;57.908;16.490;2022-12-04T03:01:01;103018.72;;;0.67
12126;BMP180;6126;57.908;16.490;2022-12-04T03:03:31;103025.63;;;0.68
12126;BMP180;6126;57.908;16.490;2022-12-04T03:06:06;103029.94;;;0.69
12126;BMP180;6126;57.908;16.490;2022-12-04T03:08:44;103008.47;;;0.69
12126;BMP180;6126;57.908;16.490;2022-12-04T03:11:11;103017.03;;;0.68
12126;BMP180;6126;57.908;16.490;2022-12-04T03:13:38;103025.56;;;0.67
12126;BMP180;6126;57.908;16.490;2022-12-04T03:16:18;103016.97;;;0.66
12126;BMP180;6126;57.908;16.490;2022-12-04T03:18:58;103027.38;;;0.69
12126;BMP180;6126;57.908;16.490;2022-12-04T03:21:36;103024.06;;;0.73
12126;BMP180;6126;57.908;16.490;2022-12-04T03:24:17;103037.03;;;0.76
12126;BMP180;6126;57.908;16.490;2022-12-04T03:26:49;103019.97;;;0.78
12126;BMP180;6126;57.908;16.490;2022-12-04T03:29:29;103020.84;;;0.80
12126;BMP180;6126;57.908;16.490;2022-12-04T03:32:15;103024.44;;;0.85
12126;BMP180;6126;57.908;16.490;2022-12-04T03:34:55;103021.19;;;0.91
12126;BMP180;6126;57.908;16.490;2022-12-04T03:43:31;103019.94;;;1.04
12126;BMP180;6126;57.908;16.490;2022-12-04T03:46:08;103014.00;;;1.07
12126;BMP180;6126;57.908;16.490;2022-12-04T03:51:47;103023.63;;;1.12
12126;BMP180;6126;57.908;16.490;2022-12-04T03:54:27;103018.50;;;1.14
12126;BMP180;6126;57.908;16.490;2022-12-04T03:57:22;103010.78;;;1.14
12126;BMP180;6126;57.908;16.490;2022-12-04T04:00:07;103014.22;;;1.14
12126;BMP180;6126;57.908;16.490;2022-12-04T04:02:41;103015.13;;;1.15
12126;BMP180;6126;57.908;16.490;2022-12-04T04:05:11;103017.72;;;1.16
12126;BMP180;6126;57.908;16.490;2022-12-04T04:07:53;103003.13;;;1.17
12126;BMP180;6126;57.908;16.490;2022-12-04T04:10:24;103022.09;;;1.19
12126;BMP180;6126;57.908;16.490;2022-12-04T04:13:01;103029.91;;;1.22
12126;BMP180;6126;57.908;16.490;2022-12-04T04:15:53;103030.84;;;1.23
12126;BMP180;6126;57.908;16.490;2022-12-04T04:18:41;103024.91;;;1.26
12126;BMP180;6126;57.908;16.490;2022-12-04T04:21:31;103027.53;;;1.27
12126;BMP180;6126;57.908;16.490;2022-12-04T04:24:41;103019.81;;;1.27
12126;BMP180;6126;57.908;16.490;2022-12-04T04:27:08;103012.06;;;1.27
12126;BMP180;6126;57.908;16.490;2022-12-04T04:29:35;103018.13;;;1.29
12126;BMP180;6126;57.908;16.490;2022-12-04T04:32:13;103011.31;;;1.31
12126;BMP180;6126;57.908;16.490;2022-12-04T04:35:03;103009.59;;;1.30
12126;BMP180;6126;57.908;16.490;2022-12-04T04:38:18;103005.38;;;1.34
12126;BMP180;6126;57.908;16.490;2022-12-04T04:41:22;103008.91;;;1.37
12126;BMP180;6126;57.908;16.490;2022-12-04T04:44:20;103016.72;;;1.39
12126;BMP180;6126;57.908;16.490;2022-12-04T04:47:01;103008.91;;;1.37
12126;BMP180;6126;57.908;16.490;2022-12-04T04:49:32;103008.97;;;1.39
12126;BMP180;6126;57.908;16.490;2022-12-04T04:51:59;103020.16;;;1.39
12126;BMP180;6126;57.908;16.490;2022-12-04T04:54:28;103013.28;;;1.40
12126;BMP180;6126;57.908;16.490;2022-12-04T04:56:54;103012.41;;;1.39
12126;BMP180;6126;57.908;16.490;2022-12-04T04:59:20;103008.09;;;1.38
12126;BMP180;6126;57.908;16.490;2022-12-04T05:01:46;103008.13;;;1.40
12126;BMP180;6126;57.908;16.490;2022-12-04T05:04:13;103005.63;;;1.41
12126;BMP180;6126;57.908;16.490;2022-12-04T05:06:39;103012.50;;;1.42
12126;BMP180;6126;57.908;16.490;2022-12-04T05:09:05;103013.50;;;1.46
12126;BMP180;6126;57.908;16.490;2022-12-04T05:11:31;103002.41;;;1.48
12126;BMP180;6126;57.908;16.490;2022-12-04T05:13:57;103008.41;;;1.49
12126;BMP180;6126;57.908;16.490;2022-12-04T05:16:23;103015.31;;;1.50
12126;BMP180;6126;57.908;16.490;2022-12-04T05:18:48;103011.03;;;1.50
12126;BMP180;6126;57.908;16.490;2022-12-04T05:21:33;103004.22;;;1.52
12126;BMP180;6126;57.908;16.490;2022-12-04T05:23:59;103013.78;;;1.56
12126;BMP180;6126;57.908;16.490;2022-12-04T05:26:25;103012.94;;;1.57
12126;BMP180;6126;57.908;16.490;2022-12-04T05:28:51;103018.94;;;1.56
12126;BMP180;6126;57.908;16.490;2022-12-04T05:31:17;103006.06;;;1.56
12126;BMP180;6126;57.908;16.490;2022-12-04T05:33:43;103012.09;;;1.58
12126;BMP180;6126;57.908;16.490;2022-12-04T05:36:10;103017.31;;;1.59
12126;BMP180;6126;57.908;16.490;2022-12-04T05:38:37;103003.59;;;1.60
12126;BMP180;6126;57.908;16.490;2022-12-04T05:41:05;103001.00;;;1.59
12126;BMP180;6126;57.908;16.490;2022-12-04T05:43:32;102999.31;;;1.61
12126;BMP180;6126;57.908;16.490;2022-12-04T05:46:03;103005.38;;;1.63
12126;BMP180;6126;57.908;16.490;2022-12-04T05:48:29;103007.16;;;1.64
12126;BMP180;6126;57.908;16.490;2022-12-04T05:50:55;103012.31;;;1.64
12126;BMP180;6126;57.908;16.490;2022-12-04T05:53:22;103019.13;;;1.63
12126;BMP180;6126;57.908;16.490;2022-12-04T05:55:59;103015.69;;;1.63
12126;BMP180;6126;57.908;16.490;2022-12-04T05:58:26;103009.66;;;1.62
12126;BMP180;6126;57.908;16.490;2022-12-04T06:00:52;103013.13;;;1.63
12126;BMP180;6126;57.908;16.490;2022-12-04T06:03:18;103010.53;;;1.63
12126;BMP180;6126;57.908;16.490;2022-12-04T06:05:45;103007.16;;;1.64
12126;BMP180;6126;57.908;16.490;2022-12-04T06:08:11;103019.19;;;1.65
12126;BMP180;6126;57.908;16.490;2022-12-04T06:10:36;103011.47;;;1.65
12126;BMP180;6126;57.908;16.490;2022-12-04T06:13:05;103007.19;;;1.65
12126;BMP180;6126;57.908;16.490;2022-12-04T06:15:35;103013.19;;;1.66
12126;BMP180;6126;57.908;16.490;2022-12-04T06:18:01;102999.44;;;1.65
12126;BMP180;6126;57.908;16.490;2022-12-04T06:20:27;103020.94;;;1.66
12126;BMP180;6126;57.908;16.490;2022-12-04T06:22:53;103008.03;;;1.66
12126;BMP180;6126;57.908;16.490;2022-12-04T06:25:19;103021.78;;;1.65
12126;BMP180;6126;57.908;16.490;2022-12-04T06:27:44;103005.47;;;1.66
12126;BMP180;6126;57.908;16.490;2022-12-04T06:30:11;103007.19;;;1.65
12126;BMP180;6126;57.908;16.490;2022-12-04T06:32:37;103020.94;;;1.66
12126;BMP180;6126;57.908;16.490;2022-12-04T06:35:03;103017.53;;;1.67
12126;BMP180;6126;57.908;16.490;2022-12-04T06:37:29;103025.28;;;1.67
12126;BMP180;6126;57.908;16.490;2022-12-04T06:39:54;103030.44;;;1.67
12126;BMP180;6126;57.908;16.490;2022-12-04T06:42:20;103025.28;;;1.67
12126;BMP180;6126;57.908;16.490;2022-12-04T06:44:47;103028.66;;;1.66
12126;BMP180;6126;57.908;16.490;2022-12-04T06:47:14;103028.66;;;1.66
12126;BMP180;6126;57.908;16.490;2022-12-04T06:49:39;103027.84;;;1.67
12126;BMP180;6126;57.908;16.490;2022-12-04T06:52:05;103033.91;;;1.69
12126;BMP180;6126;57.908;16.490;2022-12-04T06:54:31;103026.22;;;1.70
12126;BMP180;6126;57.908;16.490;2022-12-04T06:56:57;103037.47;;;1.72
12126;BMP180;6126;57.908;16.490;2022-12-04T06:59:22;103037.50;;;1.74
12126;BMP180;6126;57.908;16.490;2022-12-04T07:01:48;103034.09;;;1.75
12126;BMP180;6126;57.908;16.490;2022-12-04T07:04:14;103036.69;;;1.75
12126;BMP180;6126;57.908;16.490;2022-12-04T07:06:41;103028.06;;;1.74
12126;BMP180;6126;57.908;16.490;2022-12-04T07:09:11;103024.66;;;1.75
12126;BMP180;6126;57.908;16.490;2022-12-04T07:11:40;103039.25;;;1.75
12126;BMP180;6126;57.908;16.490;2022-12-04T07:14:07;103035.84;;;1.76
12126;BMP180;6126;57.908;16.490;2022-12-04T07:16:33;103031.53;;;1.75
12126;BMP180;6126;57.908;16.490;2022-12-04T07:18:59;103037.63;;;1.78
12126;BMP180;6126;57.908;16.490;2022-12-04T07:21:30;103036.69;;;1.76
12126;BMP180;6126;57.908;16.490;2022-12-04T07:23:58;103043.56;;;1.76
12126;BMP180;6126;57.908;16.490;2022-12-04T07:26:26;103040.91;;;1.73
12126;BMP180;6126;57.908;16.490;2022-12-04T07:28:54;103049.38;;;1.69
12126;BMP180;6126;57.908;16.490;2022-12-04T07:31:22;103049.22;;;1.63
12126;BMP180;6126;57.908;16.490;2022-12-04T07:33:49;103042.22;;;1.59
12126;BMP180;6126;57.908;16.490;2022-12-04T07:36:19;103043.09;;;1.59
12126;BMP180;6126;57.908;16.490;2022-12-04T07:38:46;103048.09;;;1.53
12126;BMP180;6126;57.908;16.490;2022-12-04T07:41:13;103053.94;;;1.48
12126;BMP180;6126;57.908;16.490;2022-12-04T07:43:40;103046.84;;;1.41
12126;BMP180;6126;57.908;16.490;2022-12-04T07:46:14;103057.00;;;1.37
12126;BMP180;6126;57.908;16.490;2022-12-04T07:48:41;103051.69;;;1.32
12126;BMP180;6126;57.908;16.490;2022-12-04T07:51:21;103059.25;;;1.26
12126;BMP180;6126;57.908;16.490;2022-12-04T07:53:48;103064.31;;;1.23
12126;BMP180;6126;57.908;16.490;2022-12-04T07:56:15;103056.44;;;1.19
12126;BMP180;6126;57.908;16.490;2022-12-04T07:58:42;103057.28;;;1.18
12126;BMP180;6126;57.908;16.490;2022-12-04T08:01:14;103054.66;;;1.17
12126;BMP180;6126;57.908;16.490;2022-12-04T08:03:43;103064.84;;;1.14
12126;BMP180;6126;57.908;16.490;2022-12-04T08:06:09;103053.53;;;1.09
12126;BMP180;6126;57.908;16.490;2022-12-04T08:08:36;103049.16;;;1.06
12126;BMP180;6126;57.908;16.490;2022-12-04T08:11:08;103053.44;;;1.06
12126;BMP180;6126;57.908;16.490;2022-12-04T08:13:34;103056.03;;;1.06
12126;BMP180;6126;57.908;16.490;2022-12-04T08:16:05;103061.16;;;1.06
12126;BMP180;6126;57.908;16.490;2022-12-04T08:18:32;103062.88;;;1.05
12126;BMP180;6126;57.908;16.490;2022-12-04T08:21:06;103059.44;;;1.05
12126;BMP180;6126;57.908;16.490;2022-12-04T08:23:33;103056.78;;;1.03
12126;BMP180;6126;57.908;16.490;2022-12-04T08:26:00;103073.13;;;1.04
12126;BMP180;6126;57.908;16.490;2022-12-04T08:28:26;103077.41;;;1.03
12126;BMP180;6126;57.908;16.490;2022-12-04T08:30:52;103067.06;;;1.02
12126;BMP180;6126;57.908;16.490;2022-12-04T08:33:18;103064.50;;;1.02
12126;BMP180;6126;57.908;16.490;2022-12-04T08:35:43;103066.22;;;1.03
12126;BMP180;6126;57.908;16.490;2022-12-04T08:38:09;103073.13;;;1.04
12126;BMP180;6126;57.908;16.490;2022-12-04T08:40:35;103067.97;;;1.04
12126;BMP180;6126;57.908;16.490;2022-12-04T08:43:01;103067.16;;;1.05
12126;BMP180;6126;57.908;16.490;2022-12-04T08:45:27;103068.03;;;1.05
12126;BMP180;6126;57.908;16.490;2022-12-04T08:47:52;103064.63;;;1.06
12126;BMP180;6126;57.908;16.490;2022-12-04T08:50:18;103070.66;;;1.07
12126;BMP180;6126;57.908;16.490;2022-12-04T08:52:44;103081.84;;;1.07
12126;BMP180;6126;57.908;16.490;2022-12-04T08:55:10;103074.97;;;1.08
12126;BMP180;6126;57.908;16.490;2022-12-04T08:57:36;103079.19;;;1.06
12126;BMP180;6126;57.908;16.490;2022-12-04T09:00:02;103080.81;;;1.02
12126;BMP180;6126;57.908;16.490;2022-12-04T09:02:28;103078.16;;;1.01
12126;BMP180;6126;57.908;16.490;2022-12-04T09:04:54;103085.91;;;1.01
12126;BMP180;6126;57.908;16.490;2022-12-04T09:07:20;103085.97;;;1.02
12126;BMP180;6126;57.908;16.490;2022-12-04T09:09:46;103082.53;;;1.03
12126;BMP180;6126;57.908;16.490;2022-12-04T09:12:12;103086.06;;;1.05
12126;BMP180;6126;57.908;16.490;2022-12-04T09:14:37;103074.88;;;1.05
12126;BMP180;6126;57.908;16.490;2022-12-04T09:17:03;103073.09;;;1.02
12126;BMP180;6126;57.908;16.490;2022-12-04T09:19:29;103077.38;;;1.02
12126;BMP180;6126;57.908;16.490;2022-12-04T09:21:56;103083.31;;;1.01
12126;BMP180;6126;57.908;16.490;2022-12-04T09:24:22;103080.75;;;1.01
12126;BMP180;6126;57.908;16.490;2022-12-04T09:26:48;103083.31;;;1.01
12126;BMP180;6126;57.908;16.490;2022-12-04T09:29:14;103073.03;;;1.01
12126;BMP180;6126;57.908;16.490;2022-12-04T09:31:39;103082.53;;;1.02
12126;BMP180;6126;57.908;16.490;2022-12-04T09:34:05;103078.22;;;1.02
12126;BMP180;6126;57.908;16.490;2022-12-04T09:36:31;103079.94;;;1.02
12126;BMP180;6126;57.908;16.490;2022-12-04T09:38:57;103083.31;;;1.01
12126;BMP180;6126;57.908;16.490;2022-12-04T09:44:53;103079.84;;;0.99
12126;BMP180;6126;57.908;16.490;2022-12-04T09:47:30;103082.44;;;1.00
12126;BMP180;6126;57.908;16.490;2022-12-04T09:50:03;103091.88;;;1.00
12126;BMP180;6126;57.908;16.490;2022-12-04T09:53:00;103077.22;;;0.97
12126;BMP180;6126;57.908;16.490;2022-12-04T09:55:55;103075.41;;;0.95
12126;BMP180;6126;57.908;16.490;2022-12-04T09:59:02;103074.53;;;0.94
12126;BMP180;6126;57.908;16.490;2022-12-04T10:01:42;103080.66;;;0.98
12126;BMP180;6126;57.908;16.490;2022-12-04T10:04:10;103082.44;;;0.99
12126;BMP180;6126;57.908;16.490;2022-12-04T10:09:52;103072.00;;;0.96
12126;BMP180;6126;57.908;16.490;2022-12-04T10:20:55;103082.38;;;0.97
12126;BMP180;6126;57.908;16.490;2022-12-04T10:26:16;103070.34;;;0.98
12126;BMP180;6126;57.908;16.490;2022-12-04T10:28:52;103071.22;;;0.98
12126;BMP180;6126;57.908;16.490;2022-12-04T10:31:19;103074.63;;;0.97
12126;BMP180;6126;57.908;16.490;2022-12-04T10:33:50;103070.31;;;0.96
12126;BMP180;6126;57.908;16.490;2022-12-04T10:36:20;103074.56;;;0.96
12126;BMP180;6126;57.908;16.490;2022-12-04T10:39:13;103066.91;;;0.97
12126;BMP180;6126;57.908;16.490;2022-12-04T10:42:25;103072.84;;;0.95
12126;BMP180;6126;57.908;16.490;2022-12-04T10:44:51;103078.81;;;0.94
12126;BMP180;6126;57.908;16.490;2022-12-04T10:47:17;103080.56;;;0.95
12126;BMP180;6126;57.908;16.490;2022-12-04T10:49:43;103074.47;;;0.93
12126;BMP180;6126;57.908;16.490;2022-12-04T10:52:12;103080.47;;;0.92
12126;BMP180;6126;57.908;16.490;2022-12-04T10:54:52;103074.47;;;0.93
12126;BMP180;6126;57.908;16.490;2022-12-04T10:57:19;103083.03;;;0.92
12126;BMP180;6126;57.908;16.490;2022-12-04T10:59:54;103077.84;;;0.91
12126;BMP180;6126;57.908;16.490;2022-12-04T11:05:03;103074.28;;;0.87
12126;BMP180;6126;57.908;16.490;2022-12-04T11:07:36;103088.09;;;0.89
12126;BMP180;6126;57.908;16.490;2022-12-04T11:13:14;103093.25;;;0.89
12126;BMP180;6126;57.908;16.490;2022-12-04T11:15:50;103091.53;;;0.90
12126;BMP180;6126;57.908;16.490;2022-12-04T11:18:23;103082.19;;;0.93
12126;BMP180;6126;57.908;16.490;2022-12-04T11:21:18;103083.13;;;0.95
12126;BMP180;6126;57.908;16.490;2022-12-04T11:23:50;103083.13;;;0.95
12126;BMP180;6126;57.908;16.490;2022-12-04T11:26:36;103072.91;;;0.96
12126;BMP180;6126;57.908;16.490;2022-12-04T11:29:04;103084.88;;;0.96
12126;BMP180;6126;57.908;16.490;2022-12-04T11:31:31;103079.63;;;0.93
12126;BMP180;6126;57.908;16.490;2022-12-04T11:34:05;103082.13;;;0.90
12126;BMP180;6126;57.908;16.490;2022-12-04T11:36:39;103082.19;;;0.92
12126;BMP180;6126;57.908;16.490;2022-12-04T11:41:38;103078.75;;;0.92
12126;BMP180;6126;57.908;16.490;2022-12-04T11:44:24;103084.69;;;0.90
12126;BMP180;6126;57.908;16.490;2022-12-04T11:46:54;103077.81;;;0.89
12126;BMP180;6126;57.908;16.490;2022-12-04T11:49:25;103074.28;;;0.87
12126;BMP180;6126;57.908;16.490;2022-12-04T12:00:46;103081.25;;;0.90
12126;BMP180;6126;57.908;16.490;2022-12-04T12:03:31;103080.41;;;0.91
12126;BMP180;6126;57.908;16.490;2022-12-04T12:06:29;103076.16;;;0.91
12126;BMP180;6126;57.908;16.490;2022-12-04T12:25:41;103070.88;;;0.88
12126;BMP180;6126;57.908;16.490;2022-12-04T12:29:03;103074.34;;;0.89
12126;BMP180;6126;57.908;16.490;2022-12-04T12:34:42;103078.66;;;0.90
12126;BMP180;6126;57.908;16.490;2022-12-04T12:37:46;103091.59;;;0.91
12126;BMP180;6126;57.908;16.490;2022-12-04T12:43:06;103071.78;;;0.89
12126;BMP180;6126;57.908;16.490;2022-12-04T12:46:19;103088.97;;;0.90
12126;BMP180;6126;57.908;16.490;2022-12-04T12:52:06;103080.38;;;0.89
12126;BMP180;6126;57.908;16.490;2022-12-04T12:54:52;103084.66;;;0.89
12126;BMP180;6126;57.908;16.490;2022-12-04T12:57:47;103072.66;;;0.89
12126;BMP180;6126;57.908;16.490;2022-12-04T13:00:19;103072.66;;;0.89
12126;BMP180;6126;57.908;16.490;2022-12-04T13:03:04;103076.94;;;0.89
12126;BMP180;6126;57.908;16.490;2022-12-04T13:05:45;103084.59;;;0.87
12126;BMP180;6126;57.908;16.490;2022-12-04T13:08:43;103080.38;;;0.89
12126;BMP180;6126;57.908;16.490;2022-12-04T13:11:17;103077.84;;;0.91
12126;BMP180;6126;57.908;16.490;2022-12-04T13:14:01;103077.84;;;0.91
12126;BMP180;6126;57.908;16.490;2022-12-04T13:16:53;103071.81;;;0.90
12126;BMP180;6126;57.908;16.490;2022-12-04T13:19:45;103089.84;;;0.90
12126;BMP180;6126;57.908;16.490;2022-12-04T13:27:44;103076.16;;;0.91
12126;BMP180;6126;57.908;16.490;2022-12-04T13:30:24;103091.59;;;0.91
12126;BMP180;6126;57.908;16.490;2022-12-04T13:33:26;103100.13;;;0.90
12126;BMP180;6126;57.908;16.490;2022-12-04T13:36:28;103097.56;;;0.90
12126;BMP180;6126;57.908;16.490;2022-12-04T13:42:04;103085.47;;;0.88
12126;BMP180;6126;57.908;16.490;2022-12-04T13:44:33;103098.31;;;0.86
12126;BMP180;6126;57.908;16.490;2022-12-04T13:47:07;103098.31;;;0.86
12126;BMP180;6126;57.908;16.490;2022-12-04T13:49:38;103091.44;;;0.87
12126;BMP180;6126;57.908;16.490;2022-12-04T13:52:35;103088.91;;;0.88
12126;BMP180;6126;57.908;16.490;2022-12-04T13:55:02;103096.63;;;0.88
12126;BMP180;6126;57.908;16.490;2022-12-04T13:57:27;103088.97;;;0.90
12126;BMP180;6126;57.908;16.490;2022-12-04T14:00:24;103102.78;;;0.92
12126;BMP180;6126;57.908;16.490;2022-12-04T14:02:58;103095.06;;;0.93
12126;BMP180;6126;57.908;16.490;2022-12-04T14:05:33;103090.00;;;0.94
12126;BMP180;6126;57.908;16.490;2022-12-04T14:08:20;103108.00;;;0.94
12126;BMP180;6126;57.908;16.490;2022-12-04T14:11:16;103099.41;;;0.94
12126;BMP180;6126;57.908;16.490;2022-12-04T14:13:52;103085.72;;;0.95
12126;BMP180;6126;57.908;16.490;2022-12-04T14:16:38;103102.88;;;0.94
12126;BMP180;6126;57.908;16.490;2022-12-04T14:19:05;103089.13;;;0.94
12126;BMP180;6126;57.908;16.490;2022-12-04T14:21:46;103098.53;;;0.93
12126;BMP180;6126;57.908;16.490;2022-12-04T14:26:52;103084.84;;;0.94
12126;BMP180;6126;57.908;16.490;2022-12-04T14:32:07;103093.34;;;0.92
12126;BMP180;6126;57.908;16.490;2022-12-04T14:34:35;103093.34;;;0.92
12126;BMP180;6126;57.908;16.490;2022-12-04T14:37:04;103101.91;;;0.91
12126;BMP180;6126;57.908;16.490;2022-12-04T14:39:45;103100.13;;;0.90
12126;BMP180;6126;57.908;16.490;2022-12-04T14:42:25;103098.44;;;0.91
12126;BMP180;6126;57.908;16.490;2022-12-04T14:44:58;103101.00;;;0.91
12126;BMP180;6126;57.908;16.490;2022-12-04T14:58:22;103115.00;;;0.98
12126;BMP180;6126;57.908;16.490;2022-12-04T15:01:17;103097.88;;;0.99
12126;BMP180;6126;57.908;16.490;2022-12-04T15:03:46;103105.59;;;0.99
12126;BMP180;6126;57.908;16.490;2022-12-04T15:06:23;103108.22;;;1.00
12126;BMP180;6126;57.908;16.490;2022-12-04T15:08:53;103111.72;;;1.02
12126;BMP180;6126;57.908;16.490;2022-12-04T15:11:50;103111.66;;;1.01
12126;BMP180;6126;57.908;16.490;2022-12-04T15:14:48;103110.84;;;1.02
12126;BMP180;6126;57.908;16.490;2022-12-04T15:17:17;103102.28;;;1.03
12126;BMP180;6126;57.908;16.490;2022-12-04T15:19:43;103098.88;;;1.04
12126;BMP180;6126;57.908;16.490;2022-12-04T15:22:26;103098.06;;;1.05
12126;BMP180;6126;57.908;16.490;2022-12-04T15:24:52;103093.78;;;1.05
12126;BMP180;6126;57.908;16.490;2022-12-04T15:27:24;103099.78;;;1.06
12126;BMP180;6126;57.908;16.490;2022-12-04T15:29:53;103116.09;;;1.05
12126;BMP180;6126;57.908;16.490;2022-12-04T15:32:23;103110.09;;;1.06
12126;BMP180;6126;57.908;16.490;2022-12-04T15:35:04;103121.34;;;1.08
12126;BMP180;6126;57.908;16.490;2022-12-04T15:37:32;103108.50;;;1.09
12126;BMP180;6126;57.908;16.490;2022-12-04T15:39:59;103105.94;;;1.09
12126;BMP180;6126;57.908;16.490;2022-12-04T15:42:27;103123.19;;;1.12
12126;BMP180;6126;57.908;16.490;2022-12-04T15:47:37;103110.41;;;1.15
12126;BMP180;6126;57.908;16.490;2022-12-04T15:50:21;103100.91;;;1.14
12126;BMP180;6126;57.908;16.490;2022-12-04T15:53:15;103104.34;;;1.14
12126;BMP180;6126;57.908;16.490;2022-12-04T15:55:58;103107.84;;;1.15
12126;BMP180;6126;57.908;16.490;2022-12-04T15:58:36;103116.47;;;1.17
12126;BMP180;6126;57.908;16.490;2022-12-04T16:01:10;103111.38;;;1.18
12126;BMP180;6126;57.908;16.490;2022-12-04T16:06:22;103131.13;;;1.19
12126;BMP180;6126;57.908;16.490;2022-12-04T16:08:54;103121.69;;;1.18
12126;BMP180;6126;57.908;16.490;2022-12-04T16:14:13;103117.22;;;1.13
12126;BMP180;6126;57.908;16.490;2022-12-04T16:16:49;103118.03;;;1.12
12126;BMP180;6126;57.908;16.490;2022-12-04T16:19:34;103116.28;;;1.11
12126;BMP180;6126;57.908;16.490;2022-12-04T16:22:08;103114.56;;;1.11
12126;BMP180;6126;57.908;16.490;2022-12-04T16:24:35;103110.31;;;1.12
12126;BMP180;6126;57.908;16.490;2022-12-04T16:27:01;103108.56;;;1.11
12126;BMP180;6126;57.908;16.490;2022-12-04T16:29:30;103105.16;;;1.12
12126;BMP180;6126;57.908;16.490;2022-12-04T16:31:56;103108.63;;;1.14
12126;BMP180;6126;57.908;16.490;2022-12-04T16:34:22;103107.84;;;1.15
12126;BMP180;6126;57.908;16.490;2022-12-04T16:36:47;103120.75;;;1.16